»·PEaware :: ASA431 KBOI-KPDX

ASA431 :: KBOI-KPDX

FLIGHT INFORMATION

Flight Status: Arrived
Operator:
Alaska Airlines
More flights by this operator :: More flights under this callsign
Pilot: Anonymous 18910 (18910)
Aircraft: AIRBUS A319
(A319)
More flights by this aircraft type
Origin: KBOI Boise Air Terminal/Gowen
United States
Destination: KPDX Portland Intl
United States
More flights between these airports :: More routes between these airports
Route: BOI SAILL BUEEL JOTBA HHOOD4
File this flight plan on PilotEdge
Remarks:
Altitude:
(Current/Filed)
32,000ft
Speed:
(Current/Filed)
425kts
Departed: 12-Jul-19 08:13 PM
Arrived: 12-Jul-19 09:07 PM
Distance/Time
Traveled:
298nm/0:54
Distance/Time
To Go:
Arrived

Flight Plot

Page will automatically refresh every two minutes.

Flight plan parsing failed; only flown route is shown


Map Options




Map Legend


Flown Route
Filed Route
Departure Airport
Arrival Airport
Navaid (VOR, NDB)
Fix

Horizontal Profiles

Position Reports

Time Latitude Longitude Heading Altitude Ground
Speed
12-Jul-19 19:55 43.567128 -116.222050 335 2852ft 0kts
12-Jul-19 19:56 43.567128 -116.222050 335 2852ft 0kts
12-Jul-19 19:57 43.567128 -116.222050 335 2852ft 0kts
12-Jul-19 19:58 43.567128 -116.222050 335 2852ft 0kts
12-Jul-19 19:59 43.567128 -116.222050 335 2852ft 0kts
12-Jul-19 20:00 43.567128 -116.222050 335 2852ft 0kts
12-Jul-19 20:01 43.567128 -116.222050 335 2852ft 0kts
12-Jul-19 20:02 43.567128 -116.222050 335 2852ft 0kts
12-Jul-19 20:03 43.567128 -116.222050 335 2852ft 0kts
12-Jul-19 20:04 43.567073 -116.222014 335 2852ft 1kts
12-Jul-19 20:05 43.566731 -116.221431 298 2852ft 2kts
12-Jul-19 20:06 43.566678 -116.221110 234 2852ft 0kts
12-Jul-19 20:07 43.566661 -116.221144 234 2852ft 0kts
12-Jul-19 20:08 43.566646 -116.221171 232 2852ft 1kts
12-Jul-19 20:09 43.567592 -116.225695 294 2852ft 22kts
12-Jul-19 20:10 43.570672 -116.234803 294 2852ft 19kts
12-Jul-19 20:11 43.570567 -116.240932 255 2852ft 17kts
12-Jul-19 20:12 43.564863 -116.227475 115 2852ft 136kts
12-Jul-19 20:13 43.546934 -116.168212 112 4875ft 171kts
12-Jul-19 20:14 43.527548 -116.100026 109 6447ft 226kts
12-Jul-19 20:15 43.476388 -116.048254 205 8313ft 298kts
12-Jul-19 20:16 43.468828 -116.149188 293 10748ft 323kts
12-Jul-19 20:17 43.505160 -116.276265 291 12558ft 377kts
12-Jul-19 20:18 43.541949 -116.413784 291 15456ft 389kts
12-Jul-19 20:19 43.580227 -116.556303 290 17893ft 402kts
12-Jul-19 20:20 43.618824 -116.703730 289 20025ft 415kts
12-Jul-19 20:21 43.658689 -116.855868 289 21978ft 425kts
12-Jul-19 20:22 43.699376 -117.011378 287 23719ft 434kts
12-Jul-19 20:23 43.743259 -117.169551 290 25268ft 445kts
12-Jul-19 20:24 43.793744 -117.327319 290 26599ft 454kts
12-Jul-19 20:25 43.843985 -117.487859 290 27686ft 461kts
12-Jul-19 20:26 43.901053 -117.646685 298 29053ft 461kts
12-Jul-19 20:27 43.969980 -117.796683 298 30292ft 459kts
12-Jul-19 20:28 44.037768 -117.944270 298 31364ft 456kts
12-Jul-19 20:29 44.105993 -118.093407 298 31985ft 454kts
12-Jul-19 20:30 44.173450 -118.240663 298 32032ft 454kts
12-Jul-19 20:31 44.240912 -118.389562 298 32059ft 454kts
12-Jul-19 20:32 44.306298 -118.534817 297 32066ft 447kts
12-Jul-19 20:33 44.371503 -118.680539 297 32063ft 447kts
12-Jul-19 20:34 44.437134 -118.828261 297 32066ft 447kts
12-Jul-19 20:35 44.502861 -118.976689 297 32065ft 451kts
12-Jul-19 20:36 44.568922 -119.126523 297 32066ft 453kts
12-Jul-19 20:37 44.635141 -119.277480 297 32066ft 453kts
12-Jul-19 20:38 44.700868 -119.428132 297 32066ft 453kts
12-Jul-19 20:39 44.766569 -119.579536 297 32066ft 453kts
12-Jul-19 20:40 44.832125 -119.731654 296 32065ft 453kts
12-Jul-19 20:41 44.896947 -119.882860 297 32056ft 453kts
12-Jul-19 20:42 44.961804 -120.034749 297 31989ft 452kts
12-Jul-19 20:43 45.026758 -120.187679 296 29925ft 455kts
12-Jul-19 20:44 45.091249 -120.340291 296 26920ft 446kts
12-Jul-19 20:45 45.153534 -120.487750 296 24540ft 428kts
12-Jul-19 20:46 45.210805 -120.632183 294 22406ft 414kts
12-Jul-19 20:47 45.264780 -120.773222 294 20338ft 396kts
12-Jul-19 20:48 45.316333 -120.908054 294 18323ft 382kts
12-Jul-19 20:49 45.365981 -121.038467 294 16923ft 358kts
12-Jul-19 20:50 45.409939 -121.154208 294 16004ft 322kts
12-Jul-19 20:51 45.441599 -121.268619 282 14573ft 302kts
12-Jul-19 20:52 45.463861 -121.381887 283 13259ft 290kts
12-Jul-19 20:53 45.486143 -121.494602 284 11932ft 300kts
12-Jul-19 20:54 45.508217 -121.606576 284 10579ft 285kts
12-Jul-19 20:55 45.528198 -121.713713 278 9346ft 273kts
12-Jul-19 20:57 45.533350 -121.823420 272 8127ft 283kts
12-Jul-19 20:58 45.537218 -121.932982 272 6831ft 270kts
12-Jul-19 20:59 45.541970 -122.030983 271 6672ft 226kts
12-Jul-19 21:00 45.534826 -122.120361 262 6674ft 227kts
12-Jul-19 21:01 45.525917 -122.210041 262 6638ft 223kts
12-Jul-19 21:02 45.517129 -122.297134 262 4613ft 222kts
12-Jul-19 21:03 45.515906 -122.382983 287 2868ft 208kts
12-Jul-19 21:04 45.538464 -122.450408 299 1980ft 171kts
12-Jul-19 21:05 45.558989 -122.503638 300 987ft 134kts
12-Jul-19 21:06 45.577350 -122.550789 300 347ft 135kts
12-Jul-19 21:07 45.591423 -122.587014 297 27ft 33kts
12-Jul-19 21:08 45.592066 -122.591443 266 27ft 8kts
12-Jul-19 21:09 45.593280 -122.597135 295 30ft 8kts
12-Jul-19 21:10 45.591771 -122.598835 224 28ft 6kts
12-Jul-19 21:11 45.589876 -122.601748 208 26ft 14kts
12-Jul-19 21:12 45.588163 -122.599148 85 25ft 16kts
12-Jul-19 21:13 45.588237 -122.595735 38 27ft 0kts

Navigation Log

Ident Type
Flight plan parsing failed, navigation log unavailable